Time;durP1;ratioP1;P1;durP2;ratioP2;P2;SDS_P1;SDS_P2;PMS_P1;PMS_P2;Temp;Humidity;BMP_temperature;BMP_pressure;BME280_temperature;BME280_humidity;BME280_pressure;Samples;Min_cycle;Max_cycle;Signal;HPM_P1;HPM_P2
2022/03/16 00:01:56;;;;;;;15.70;7.03;;;;;;;8.75;100.00;96849.66;5050573;27;105216;-61
2022/03/16 00:04:23;;;;;;;16.63;7.23;;;;;;;8.69;100.00;96847.09;5052592;27;101932;-61
2022/03/16 00:06:50;;;;;;;20.40;6.60;;;;;;;8.60;100.00;96851.09;5051059;27;105428;-61
2022/03/16 00:09:17;;;;;;;14.70;6.63;;;;;;;8.67;100.00;96846.53;5051813;27;102559;-61
2022/03/16 00:11:44;;;;;;;19.47;7.40;;;;;;;8.62;100.00;96852.47;5051086;27;101905;-61
2022/03/16 00:14:11;;;;;;;16.43;7.30;;;;;;;8.62;100.00;96849.84;5050958;27;104025;-61
2022/03/16 00:16:39;;;;;;;19.53;6.87;;;;;;;8.61;100.00;96852.72;5033323;27;106617;-61
2022/03/16 00:19:06;;;;;;;16.40;6.20;;;;;;;8.54;100.00;96850.16;5054361;27;102463;-61
2022/03/16 00:21:34;;;;;;;16.10;6.70;;;;;;;8.54;100.00;96852.81;5051505;27;104581;-61
2022/03/16 00:24:02;;;;;;;17.83;5.93;;;;;;;8.55;100.00;96849.13;5050909;27;101824;-61
2022/03/16 00:26:29;;;;;;;10.60;6.00;;;;;;;8.55;100.00;96851.78;5052311;27;102321;-61
2022/03/16 00:28:56;;;;;;;14.33;6.60;;;;;;;8.53;100.00;96858.34;5050005;27;105066;-61
2022/03/16 00:31:23;;;;;;;21.67;6.87;;;;;;;8.57;100.00;96851.56;5050789;27;102114;-61
2022/03/16 00:33:52;;;;;;;13.53;6.03;;;;;;;8.52;100.00;96854.91;5052146;27;102692;-61
2022/03/16 00:36:21;;;;;;;12.03;5.90;;;;;;;8.57;100.00;96860.31;5050060;27;105450;-61
2022/03/16 00:38:48;;;;;;;14.17;5.93;;;;;;;8.61;100.00;96869.44;5049140;27;101897;-61
2022/03/16 00:41:17;;;;;;;15.83;6.77;;;;;;;8.52;100.00;96877.94;5053457;27;104903;-61
2022/03/16 00:43:44;;;;;;;18.57;7.00;;;;;;;8.49;100.00;96883.66;5050689;27;101847;-61
2022/03/16 00:46:12;;;;;;;14.03;6.40;;;;;;;8.42;100.00;96885.63;5050235;27;105199;-61
2022/03/16 00:48:39;;;;;;;17.90;6.07;;;;;;;8.38;100.00;96887.09;5049492;27;105186;-61
2022/03/16 00:51:09;;;;;;;18.83;6.87;;;;;;;8.42;100.00;96896.22;5050378;27;101895;-61
2022/03/16 00:53:38;;;;;;;22.37;7.80;;;;;;;8.46;100.00;96892.09;5049876;27;104804;-61
2022/03/16 00:56:07;;;;;;;16.63;6.40;;;;;;;8.40;100.00;96893.00;5049685;27;105794;-61
2022/03/16 00:58:34;;;;;;;18.33;6.23;;;;;;;8.42;100.00;96885.63;5050306;27;101926;-61
2022/03/16 01:01:00;;;;;;;20.13;7.10;;;;;;;8.44;100.00;96886.19;5050235;27;104375;-61
2022/03/16 01:03:28;;;;;;;15.33;6.77;;;;;;;8.49;100.00;96887.16;5053102;27;105431;-61
2022/03/16 01:05:55;;;;;;;13.77;7.70;;;;;;;8.53;100.00;96882.19;5050342;27;104906;-61
2022/03/16 01:08:25;;;;;;;14.90;6.60;;;;;;;8.55;100.00;96886.25;5049416;27;105609;-61
2022/03/16 01:10:51;;;;;;;15.17;6.83;;;;;;;8.58;100.00;96887.63;5051196;27;101834;-61
2022/03/16 01:13:20;;;;;;;15.37;6.70;;;;;;;8.59;100.00;96890.06;5050153;27;106201;-61
2022/03/16 01:15:47;;;;;;;13.20;6.20;;;;;;;8.61;100.00;96892.50;5049470;27;105370;-61
2022/03/16 01:18:15;;;;;;;15.57;6.37;;;;;;;8.59;100.00;96890.06;5049901;27;102125;-61
2022/03/16 01:20:42;;;;;;;15.80;6.80;;;;;;;8.54;100.00;96887.28;5049974;27;105166;-61
2022/03/16 01:23:09;;;;;;;12.27;6.30;;;;;;;8.52;100.00;96885.88;5049198;27;105731;-61
2022/03/16 01:25:38;;;;;;;13.70;6.83;;;;;;;8.48;100.00;96895.31;5054746;27;101822;-61
2022/03/16 01:28:06;;;;;;;14.37;6.10;;;;;;;8.39;100.00;96894.03;5049286;27;105340;-61
2022/03/16 01:30:33;;;;;;;14.13;6.37;;;;;;;8.38;100.00;96895.84;5049680;27;101959;-61
2022/03/16 01:33:00;;;;;;;11.37;6.17;;;;;;;8.36;100.00;96894.47;5049932;27;103572;-61
2022/03/16 01:35:27;;;;;;;11.03;6.17;;;;;;;8.32;100.00;96887.97;5049050;27;105788;-61
2022/03/16 01:37:54;;;;;;;13.07;6.37;;;;;;;8.35;100.00;96892.84;5049577;27;102086;-61
2022/03/16 01:40:22;;;;;;;13.27;6.33;;;;;;;8.36;100.00;96897.94;5049432;27;105620;-61
2022/03/16 01:42:50;;;;;;;12.90;6.87;;;;;;;8.27;100.00;96904.56;5049062;27;104162;-61
2022/03/16 01:45:17;;;;;;;12.67;6.60;;;;;;;8.23;100.00;96903.38;5052839;27;101930;-61
2022/03/16 01:47:44;;;;;;;14.13;6.80;;;;;;;8.19;100.00;96904.03;5048859;27;106013;-61
2022/03/16 01:50:11;;;;;;;15.33;7.57;;;;;;;8.20;100.00;96901.19;5048911;27;101892;-61
2022/03/16 01:52:41;;;;;;;13.27;7.93;;;;;;;8.24;100.00;96899.69;5049620;27;104752;-61
2022/03/16 01:55:09;;;;;;;19.53;7.50;;;;;;;8.23;100.00;96898.09;5029824;28;103119;-61
2022/03/16 01:57:39;;;;;;;15.60;7.97;;;;;;;8.49;100.00;96908.34;5029135;28;101958;-61
2022/03/16 02:00:09;;;;;;;16.57;7.70;;;;;;;8.62;100.00;96902.06;5029155;28;104806;-61
2022/03/16 02:02:45;;;;;;;13.50;7.20;;;;;;;8.69;100.00;96892.16;5028568;28;105290;-61
2022/03/16 02:05:14;;;;;;;13.77;7.70;;;;;;;8.74;100.00;96895.78;5028787;28;102061;-61
2022/03/16 02:07:43;;;;;;;15.47;7.87;;;;;;;8.73;100.00;96896.00;5031796;28;105176;-61
2022/03/16 02:10:10;;;;;;;14.33;8.33;;;;;;;8.78;100.00;96902.22;5028867;28;101949;-61
2022/03/16 02:12:45;;;;;;;14.30;7.70;;;;;;;8.78;100.00;96904.88;5029047;28;105461;-61
2022/03/16 02:15:13;;;;;;;17.43;8.63;;;;;;;8.79;100.00;96898.53;5028216;28;105040;-61
2022/03/16 02:17:40;;;;;;;18.03;9.27;;;;;;;8.79;100.00;96887.91;5028612;28;101851;-61
2022/03/16 02:20:09;;;;;;;19.50;8.17;;;;;;;8.82;100.00;96894.59;5028665;28;104941;-61
2022/03/16 02:22:38;;;;;;;14.60;8.60;;;;;;;8.79;100.00;96892.44;5029935;28;102529;-61
2022/03/16 02:25:09;;;;;;;13.40;8.23;;;;;;;8.78;100.00;96896.13;5030088;28;101810;-61
2022/03/16 02:27:39;;;;;;;16.87;8.33;;;;;;;8.77;100.00;96905.13;5030105;28;102851;-61
2022/03/16 02:30:08;;;;;;;14.10;8.37;;;;;;;8.70;100.00;96899.91;5031603;28;106054;-61
2022/03/16 02:32:34;;;;;;;14.67;9.90;;;;;;;8.69;100.00;96898.28;5030321;28;102326;-61
2022/03/16 02:35:02;;;;;;;15.97;9.00;;;;;;;8.63;100.00;96908.97;5027813;28;105974;-61
2022/03/16 02:37:29;;;;;;;14.53;8.13;;;;;;;8.44;100.00;96910.84;5029863;27;101822;-61
2022/03/16 02:39:56;;;;;;;15.00;8.33;;;;;;;8.48;100.00;96905.91;5030026;28;102895;-61
2022/03/16 02:42:25;;;;;;;13.60;8.37;;;;;;;8.48;100.00;96911.22;5027805;28;105301;-61
2022/03/16 02:44:52;;;;;;;15.97;8.43;;;;;;;8.42;100.00;96917.41;5029781;27;101911;-61
2022/03/16 02:47:19;;;;;;;16.23;8.07;;;;;;;8.41;100.00;96919.25;5029922;28;102890;-61
2022/03/16 02:49:46;;;;;;;15.57;7.77;;;;;;;8.42;100.00;96914.75;5027586;28;105337;-61
2022/03/16 02:52:13;;;;;;;17.90;8.43;;;;;;;8.41;100.00;96923.75;5031800;28;101820;-61
2022/03/16 02:54:41;;;;;;;18.40;8.60;;;;;;;8.40;100.00;96922.13;5043821;27;104297;-61
2022/03/16 02:57:08;;;;;;;13.57;8.03;;;;;;;8.39;100.00;96923.19;5048645;27;101921;-61
2022/03/16 02:59:37;;;;;;;12.60;8.23;;;;;;;8.36;100.00;96918.31;5048520;27;105653;-61
2022/03/16 03:02:05;;;;;;;11.10;7.03;;;;;;;8.33;100.00;96921.38;5048598;27;105840;-61
2022/03/16 03:04:32;;;;;;;20.50;8.03;;;;;;;8.31;100.00;96926.13;5052045;27;101831;-61
2022/03/16 03:06:59;;;;;;;14.83;8.07;;;;;;;8.27;100.00;96920.47;5052077;27;105234;-61
2022/03/16 03:09:26;;;;;;;15.53;6.90;;;;;;;8.33;100.00;96930.16;5051324;27;106112;-61
2022/03/16 03:11:53;;;;;;;19.77;8.57;;;;;;;8.36;100.00;96927.09;5051858;27;101880;-61
2022/03/16 03:14:21;;;;;;;16.73;7.57;;;;;;;8.29;100.00;96928.19;5054900;27;106087;-61
2022/03/16 03:16:49;;;;;;;14.13;7.73;;;;;;;8.28;100.00;96927.38;5053323;27;101665;-61
2022/03/16 03:19:16;;;;;;;17.40;8.40;;;;;;;8.29;100.00;96934.28;5051875;27;106502;-61
2022/03/16 03:21:43;;;;;;;18.03;8.57;;;;;;;8.30;100.00;96929.81;5051308;27;105904;-61
2022/03/16 03:24:09;;;;;;;17.23;9.07;;;;;;;8.27;100.00;96932.88;5051941;27;101834;-61
2022/03/16 03:26:37;;;;;;;16.87;9.27;;;;;;;8.26;100.00;96929.44;5051615;27;104992;-61
2022/03/16 03:29:04;;;;;;;14.60;8.80;;;;;;;8.31;100.00;96940.19;5051268;27;105004;-61
2022/03/16 03:31:30;;;;;;;18.37;9.40;;;;;;;8.30;100.00;96943.06;5053143;27;101830;-61
2022/03/16 03:33:59;;;;;;;18.77;8.70;;;;;;;8.34;100.00;96947.69;5051746;27;105200;-61
2022/03/16 03:36:26;;;;;;;18.07;8.90;;;;;;;8.34;100.00;96946.88;5054315;27;105421;-61
2022/03/16 03:38:53;;;;;;;18.90;8.53;;;;;;;8.30;100.00;96948.34;5051483;27;105660;-61
2022/03/16 03:41:20;;;;;;;17.17;8.53;;;;;;;8.29;100.00;96955.47;5050989;27;105248;-61
2022/03/16 03:43:48;;;;;;;15.17;9.13;;;;;;;8.29;100.00;96955.47;5051477;27;101882;-61
2022/03/16 03:46:15;;;;;;;20.43;9.37;;;;;;;8.26;100.00;96955.94;5052980;27;102559;-61
2022/03/16 03:48:42;;;;;;;16.97;8.80;;;;;;;8.33;100.00;96961.13;5050704;27;105763;-61
2022/03/16 03:51:11;;;;;;;13.97;8.33;;;;;;;8.34;100.00;96958.28;5051593;27;101915;-61
2022/03/16 03:53:38;;;;;;;17.10;9.13;;;;;;;8.34;100.00;96960.13;5050792;27;105545;-61
2022/03/16 03:56:06;;;;;;;22.10;9.73;;;;;;;8.32;100.00;96964.81;5054122;27;105261;-61
2022/03/16 03:58:32;;;;;;;19.17;9.60;;;;;;;8.29;100.00;96967.94;5051268;27;106112;-61
2022/03/16 04:00:59;;;;;;;21.77;10.77;;;;;;;8.27;100.00;96968.16;5051894;27;103189;-61
2022/03/16 04:03:26;;;;;;;20.27;10.33;;;;;;;8.28;100.00;96963.69;5051835;27;101729;-61
2022/03/16 04:05:54;;;;;;;15.37;9.47;;;;;;;8.28;100.00;96971.63;5050178;27;103855;-61
2022/03/16 04:08:23;;;;;;;18.50;9.53;;;;;;;8.26;100.00;96973.66;5051936;27;102804;-61
2022/03/16 04:10:51;;;;;;;18.77;11.20;;;;;;;8.26;100.00;96976.31;5052464;27;101818;-61
2022/03/16 04:13:18;;;;;;;21.27;10.03;;;;;;;8.22;100.00;96977.78;5049781;27;104732;-61
2022/03/16 04:15:45;;;;;;;21.40;12.13;;;;;;;8.23;100.00;96982.06;5049255;27;105354;-61
2022/03/16 04:18:12;;;;;;;24.87;14.03;;;;;;;8.22;100.00;96983.91;5054974;27;101822;-61
2022/03/16 04:20:39;;;;;;;22.63;16.70;;;;;;;8.27;100.00;96983.22;5049488;27;105334;-61
2022/03/16 04:23:06;;;;;;;23.50;18.23;;;;;;;8.29;100.00;96987.28;5050141;27;101871;-61
2022/03/16 04:25:35;;;;;;;24.67;18.50;;;;;;;8.28;100.00;96993.63;5049627;27;106218;-61
2022/03/16 04:28:02;;;;;;;28.67;19.67;;;;;;;8.30;100.00;97001.34;5049343;27;105472;-61
2022/03/16 04:30:29;;;;;;;28.23;21.27;;;;;;;8.28;100.00;97006.06;5049632;27;101896;-61
2022/03/16 04:32:56;;;;;;;30.03;22.13;;;;;;;8.27;100.00;96999.94;5049989;27;105076;-61
2022/03/16 04:35:24;;;;;;;30.00;23.00;;;;;;;8.27;100.00;96999.13;5048857;27;105364;-61
2022/03/16 04:37:50;;;;;;;29.60;23.17;;;;;;;8.25;100.00;97004.66;5049677;27;101934;-61
2022/03/16 04:40:17;;;;;;;30.20;22.97;;;;;;;8.24;100.00;97010.19;5054063;27;102240;-61
2022/03/16 04:42:46;;;;;;;31.87;23.07;;;;;;;8.22;100.00;97018.34;5049447;27;101763;-61
2022/03/16 04:45:14;;;;;;;24.50;21.50;;;;;;;8.22;100.00;97015.69;5049122;27;105158;-61
2022/03/16 04:47:41;;;;;;;29.77;23.97;;;;;;;8.24;100.00;97015.47;5048907;27;105264;-61
2022/03/16 04:50:09;;;;;;;33.83;23.23;;;;;;;8.21;100.00;97023.84;5050905;27;101809;-61
2022/03/16 04:52:44;;;;;;;34.57;23.63;;;;;;;8.19;100.00;97023.25;5049522;27;105795;-61
2022/03/16 04:55:11;;;;;;;31.77;23.33;;;;;;;8.18;100.00;97025.06;5048899;27;103631;-61
2022/03/16 04:57:38;;;;;;;32.23;24.87;;;;;;;8.18;100.00;97022.41;5049039;27;101914;-61
2022/03/16 05:00:09;;;;;;;31.60;25.07;;;;;;;8.20;100.00;97024.88;5049254;27;104029;-61
2022/03/16 05:02:36;;;;;;;32.33;24.90;;;;;;;8.16;100.00;97024.50;5052380;27;105320;-61
2022/03/16 05:05:04;;;;;;;33.03;25.40;;;;;;;8.14;100.00;97020.44;5049241;27;105232;-61
2022/03/16 05:07:31;;;;;;;32.53;25.00;;;;;;;8.13;100.00;97027.56;5048537;27;105609;-62
2022/03/16 05:09:58;;;;;;;34.70;24.93;;;;;;;8.12;100.00;97033.09;5048840;27;101884;-61
2022/03/16 05:12:25;;;;;;;29.60;24.50;;;;;;;8.10;100.00;97040.44;5049103;27;105152;-61
2022/03/16 05:14:52;;;;;;;35.07;25.67;;;;;;;8.08;100.00;97042.50;5048568;27;105270;-61
2022/03/16 05:17:21;;;;;;;34.97;24.87;;;;;;;8.02;100.00;97043.38;5048928;27;101814;-61
2022/03/16 05:19:49;;;;;;;31.40;24.67;;;;;;;7.99;100.00;97049.09;5049028;27;105013;-61
2022/03/16 05:22:16;;;;;;;34.60;24.63;;;;;;;7.97;100.00;97053.81;5049996;27;102662;-61
2022/03/16 05:24:43;;;;;;;34.83;25.20;;;;;;;7.93;100.00;97056.09;5051844;27;101850;-62
2022/03/16 05:27:10;;;;;;;32.23;24.27;;;;;;;7.91;100.00;97060.78;5048195;27;105449;-61
2022/03/16 05:29:37;;;;;;;35.53;25.13;;;;;;;7.87;100.00;97058.78;5048895;27;101935;-61
2022/03/16 05:32:05;;;;;;;36.30;27.03;;;;;;;7.87;100.00;97066.75;5048599;27;104039;-61
2022/03/16 05:34:34;;;;;;;38.57;28.63;;;;;;;7.85;100.00;97074.09;5048272;27;105407;-61
2022/03/16 05:37:00;;;;;;;27.30;21.83;;;;;;;7.27;100.00;97080.63;5048520;27;101838;-62
2022/03/16 05:39:28;;;;;;;26.43;20.47;;;;;;;7.14;100.00;97081.50;5048851;27;105162;-61
2022/03/16 05:41:56;;;;;;;26.33;20.73;;;;;;;7.07;100.00;97091.31;5047957;27;105048;-61
2022/03/16 05:44:23;;;;;;;25.97;20.97;;;;;;;7.01;100.00;97083.41;5048011;27;101880;-61
2022/03/16 05:46:52;;;;;;;32.13;24.37;;;;;;;6.87;100.00;97095.88;5051176;27;103622;-61
2022/03/16 05:49:20;;;;;;;28.23;22.53;;;;;;;6.85;100.00;97097.09;5048563;27;101817;-61
2022/03/16 05:51:49;;;;;;;30.77;24.10;;;;;;;6.71;100.00;97100.81;5048555;27;104976;-61
2022/03/16 05:54:16;;;;;;;31.33;23.47;;;;;;;6.67;100.00;97107.53;5047252;27;106034;-61
2022/03/16 05:56:44;;;;;;;31.43;24.00;;;;;;;6.59;100.00;97102.47;5049789;27;102064;-61
2022/03/16 05:59:11;;;;;;;34.87;25.73;;;;;;;6.58;100.00;97120.16;5048276;27;103944;-61
2022/03/16 06:01:38;;;;;;;32.80;24.63;;;;;;;6.49;100.00;97112.69;5049390;27;103198;-62
2022/03/16 06:04:05;;;;;;;33.93;24.37;;;;;;;6.40;100.00;97113.91;5049778;27;101952;-62
2022/03/16 06:06:32;;;;;;;34.17;25.10;;;;;;;6.39;100.00;97117.56;5052668;27;102903;-62
2022/03/16 06:09:00;;;;;;;32.97;24.63;;;;;;;6.35;100.00;97122.47;5049530;27;101792;-62
2022/03/16 06:11:29;;;;;;;36.77;27.50;;;;;;;6.32;100.00;97122.06;5048065;27;106741;-62
2022/03/16 06:13:57;;;;;;;38.10;27.47;;;;;;;6.29;100.00;97123.28;5048837;27;102979;-62
2022/03/16 06:16:24;;;;;;;39.17;28.23;;;;;;;6.21;100.00;97125.34;5049324;27;101782;-61
2022/03/16 06:18:51;;;;;;;40.73;28.10;;;;;;;6.15;100.00;97128.75;5049451;27;102350;-62
2022/03/16 06:21:18;;;;;;;57.27;37.53;;;;;;;6.10;100.00;97139.13;5048757;27;102751;-62
2022/03/16 06:23:45;;;;;;;67.67;42.13;;;;;;;6.07;100.00;97147.47;5049629;27;101646;-62
2022/03/16 06:26:13;;;;;;;53.43;34.00;;;;;;;6.12;100.00;97143.19;5047949;27;103717;-62
2022/03/16 06:28:41;;;;;;;51.80;32.27;;;;;;;6.16;100.00;97148.91;5052331;27;103035;-62
2022/03/16 06:31:08;;;;;;;45.30;29.37;;;;;;;6.13;100.00;97157.22;5049311;27;102590;-62
2022/03/16 06:33:36;;;;;;;44.83;29.43;;;;;;;6.07;100.00;97152.75;5048847;27;102505;-61
2022/03/16 06:36:02;;;;;;;38.13;26.80;;;;;;;6.04;100.00;97155.78;5049455;27;102052;-61
2022/03/16 06:38:29;;;;;;;41.37;27.77;;;;;;;6.05;100.00;97157.44;5052235;27;101722;-61
2022/03/16 06:40:56;;;;;;;39.93;26.07;;;;;;;6.03;100.00;97172.66;5050416;27;104096;-62
2022/03/16 06:43:25;;;;;;;36.50;25.40;;;;;;;6.02;100.00;97171.84;5052930;27;101678;-61
2022/03/16 06:45:52;;;;;;;34.23;24.77;;;;;;;6.11;100.00;97183.03;5052561;27;102314;-62
2022/03/16 06:48:22;;;;;;;35.47;24.87;;;;;;;6.12;100.00;97187.28;5052346;27;103148;-62
2022/03/16 06:50:49;;;;;;;34.53;24.57;;;;;;;6.13;100.00;97181.81;5055657;27;101736;-61
2022/03/16 06:53:16;;;;;;;36.13;24.07;;;;;;;6.12;100.00;97192.56;5050187;27;105653;-62
2022/03/16 06:55:43;;;;;;;35.40;24.90;;;;;;;6.14;100.00;97190.53;5052489;27;101703;-62
2022/03/16 06:58:10;;;;;;;39.57;25.97;;;;;;;6.20;100.00;97197.63;5050817;27;105233;-62
2022/03/16 07:00:39;;;;;;;37.23;26.27;;;;;;;6.07;100.00;97195.00;5051911;27;102541;-61
2022/03/16 07:03:07;;;;;;;39.17;28.20;;;;;;;6.11;100.00;97193.59;5050074;27;102012;-62
2022/03/16 07:05:36;;;;;;;40.37;28.37;;;;;;;6.13;100.00;97191.53;5051951;27;102968;-61
2022/03/16 07:08:06;;;;;;;41.57;28.57;;;;;;;6.11;100.00;97190.94;5048441;27;103020;-61
2022/03/16 07:10:33;;;;;;;36.73;26.10;;;;;;;6.11;100.00;97194.38;5052329;27;101755;-62
2022/03/16 07:13:01;;;;;;;39.27;26.80;;;;;;;6.15;100.00;97197.44;5053951;27;106337;-61
2022/03/16 07:15:30;;;;;;;38.57;26.83;;;;;;;6.18;100.00;97199.69;5052271;27;101830;-61
2022/03/16 07:18:01;;;;;;;38.10;26.90;;;;;;;6.25;100.00;97189.91;5050702;27;105806;-61
2022/03/16 07:20:28;;;;;;;40.13;26.60;;;;;;;6.25;100.00;97198.66;5050436;27;105175;-61
2022/03/16 07:23:06;;;;;;;36.77;26.17;;;;;;;6.28;100.00;97200.09;5051001;27;101881;-61
2022/03/16 07:25:33;;;;;;;35.77;24.63;;;;;;;6.41;100.00;97195.59;5052090;27;102775;-61
2022/03/16 07:28:01;;;;;;;39.07;27.30;;;;;;;6.37;100.00;97202.31;5050277;27;106411;-61
2022/03/16 07:30:28;;;;;;;37.50;25.67;;;;;;;6.36;100.00;97207.78;5050613;27;102050;-61
2022/03/16 07:32:58;;;;;;;37.90;26.60;;;;;;;6.43;100.00;97206.78;5050784;27;105973;-61
2022/03/16 07:35:27;;;;;;;38.60;27.17;;;;;;;6.36;100.00;97200.69;5053745;27;105772;-61
2022/03/16 07:37:56;;;;;;;39.77;27.83;;;;;;;6.39;100.00;97207.41;5050064;27;105604;-61
2022/03/16 07:40:24;;;;;;;38.97;27.97;;;;;;;6.45;100.00;97214.50;5049980;27;105508;-62
2022/03/16 07:42:53;;;;;;;37.77;27.10;;;;;;;6.58;100.00;97217.94;5051935;27;101895;-62
2022/03/16 07:45:20;;;;;;;37.23;26.23;;;;;;;6.63;100.00;97226.06;5050205;27;105138;-63
2022/03/16 07:47:49;;;;;;;39.80;27.93;;;;;;;6.55;100.00;97218.34;5048132;27;105551;-63
2022/03/16 07:50:18;;;;;;;37.23;26.23;;;;;;;6.57;100.00;97218.16;5047725;27;102332;-61
2022/03/16 07:52:45;;;;;;;35.97;25.90;;;;;;;6.62;100.00;97224.44;5041005;27;104858;-62
2022/03/16 07:55:13;;;;;;;37.30;27.23;;;;;;;6.65;100.00;97221.38;5029656;28;105764;-61
2022/03/16 07:57:41;;;;;;;34.87;26.13;;;;;;;6.65;100.00;97223.22;5050482;27;102151;-61
2022/03/16 08:00:12;;;;;;;38.67;26.57;;;;;;;6.72;100.00;97224.81;5040662;27;103451;-61
2022/03/16 08:02:39;;;;;;;37.20;24.80;;;;;;;6.71;100.00;97228.50;5041403;27;102076;-61
2022/03/16 08:05:08;;;;;;;37.40;27.10;;;;;;;6.61;100.00;97222.81;5049780;27;105704;-62
2022/03/16 08:07:37;;;;;;;36.20;25.90;;;;;;;6.69;100.00;97227.06;5047576;27;105718;-61
2022/03/16 08:10:05;;;;;;;33.77;25.80;;;;;;;6.65;100.00;97226.66;5035255;27;102198;-61
2022/03/16 08:12:32;;;;;;;37.40;27.23;;;;;;;6.66;100.00;97225.66;5035360;27;105478;-61
2022/03/16 08:18:47;;;;;;;33.40;24.90;;;;;;;6.69;100.00;97225.25;5032338;28;101939;-61
2022/03/16 08:21:26;;;;;;;36.67;26.83;;;;;;;6.75;100.00;97218.31;5040183;27;105367;-60
2022/03/16 08:23:55;;;;;;;40.23;26.93;;;;;;;6.87;100.00;97221.97;5046913;27;101755;-62
2022/03/16 08:26:23;;;;;;;35.10;25.67;;;;;;;6.82;100.00;97225.22;5047972;27;105214;-62
2022/03/16 08:28:50;;;;;;;36.03;26.33;;;;;;;6.62;100.00;97237.66;5045704;27;102661;-62
2022/03/16 08:31:17;;;;;;;35.50;25.97;;;;;;;6.64;100.00;97240.06;5035903;27;102080;-62
2022/03/16 08:33:44;;;;;;;33.77;24.87;;;;;;;6.71;100.00;97243.56;5050281;27;104850;-62
2022/03/16 08:36:12;;;;;;;34.87;25.33;;;;;;;6.70;100.00;97239.28;5047574;27;105362;-62
2022/03/16 08:38:41;;;;;;;35.33;26.10;;;;;;;6.81;100.00;97241.31;5049625;27;102252;-62
2022/03/16 08:41:11;;;;;;;35.00;26.57;;;;;;;6.85;100.00;97237.22;5052651;27;105626;-62
2022/03/16 08:43:44;;;;;;;37.73;28.20;;;;;;;6.92;100.00;97251.25;5049838;27;101884;-62
2022/03/16 08:46:11;;;;;;;35.97;26.57;;;;;;;6.84;100.00;97241.69;5031226;28;101707;-61
2022/03/16 08:48:38;;;;;;;34.30;25.90;;;;;;;6.78;100.00;97249.63;5030561;28;102707;-62
2022/03/16 08:51:08;;;;;;;33.90;25.90;;;;;;;6.88;100.00;97250.03;5030548;27;101986;-63
2022/03/16 08:53:37;;;;;;;35.87;27.10;;;;;;;6.77;100.00;97248.00;5029207;28;104843;-62
2022/03/16 08:56:04;;;;;;;35.63;27.13;;;;;;;6.86;100.00;97244.13;5029042;28;105801;-62
2022/03/16 08:58:33;;;;;;;36.20;27.27;;;;;;;6.91;100.00;97239.03;5029419;28;101978;-62
2022/03/16 09:01:23;;;;;;;37.77;29.03;;;;;;;7.04;100.00;97245.09;5028488;27;104788;-62
2022/03/16 09:03:50;;;;;;;35.13;26.70;;;;;;;7.00;100.00;97249.19;5031305;28;105418;-64
2022/03/16 09:06:17;;;;;;;33.90;25.17;;;;;;;6.96;100.00;97239.22;5032596;27;105544;-63
2022/03/16 09:08:44;;;;;;;32.57;25.20;;;;;;;6.86;100.00;97241.47;5050183;27;102373;-63
2022/03/16 09:11:24;;;;;;;30.20;24.43;;;;;;;6.96;100.00;97247.16;5049509;27;101898;-63
2022/03/16 09:14:05;;;;;;;31.57;24.80;;;;;;;6.99;100.00;97244.91;5039253;27;105380;-63
2022/03/16 09:16:32;;;;;;;31.53;24.13;;;;;;;6.99;100.00;97249.41;5028472;28;106142;-63
2022/03/16 09:18:59;;;;;;;30.07;23.20;;;;;;;7.03;100.00;97250.63;5012296;28;101937;-63
2022/03/16 09:21:30;;;;;;;32.37;25.10;;;;;;;7.06;100.00;97250.19;5028922;28;103807;-63
2022/03/16 09:23:57;;;;;;;31.07;23.97;;;;;;;7.11;100.00;97247.72;5028799;27;106386;-62
2022/03/16 09:26:24;;;;;;;29.93;24.10;;;;;;;7.15;100.00;97248.94;5032451;28;101832;-63
2022/03/16 09:28:52;;;;;;;32.23;25.53;;;;;;;7.19;100.00;97252.81;5027776;28;106565;-63
2022/03/16 09:31:38;;;;;;;34.20;25.47;;;;;;;7.16;100.00;97253.22;5040319;27;101871;-63
2022/03/16 09:34:07;;;;;;;33.23;24.40;;;;;;;7.14;100.00;97249.97;5049263;27;104123;-63
2022/03/16 09:36:34;;;;;;;30.80;23.80;;;;;;;7.07;100.00;97241.22;5046648;27;105839;-62
2022/03/16 09:39:01;;;;;;;33.40;26.03;;;;;;;7.14;100.00;97231.47;5043018;27;102537;-62
2022/03/16 09:42:05;;;;;;;31.57;24.73;;;;;;;7.19;100.00;97243.03;5028726;28;105369;-62
2022/03/16 09:44:37;;;;;;;32.20;23.70;;;;;;;7.36;100.00;97238.09;5028290;28;105570;-62
2022/03/16 09:47:08;;;;;;;29.33;22.80;;;;;;;7.29;100.00;97237.28;5028501;28;101956;-63
2022/03/16 09:49:37;;;;;;;27.93;22.43;;;;;;;7.15;100.00;97230.44;5031456;28;103675;-62
2022/03/16 09:52:04;;;;;;;30.00;23.13;;;;;;;7.22;100.00;97231.22;5041848;27;101834;-62
2022/03/16 09:54:31;;;;;;;28.97;22.70;;;;;;;7.24;100.00;97231.81;5048382;27;104860;-62
2022/03/16 09:56:58;;;;;;;28.53;23.30;;;;;;;7.32;100.00;97236.88;5049783;27;102737;-62
2022/03/16 09:59:26;;;;;;;30.40;23.23;;;;;;;7.26;100.00;97232.44;5036883;27;101958;-62
2022/03/16 10:02:06;;;;;;;27.90;22.27;;;;;;;7.30;100.00;97238.94;5028432;28;105525;-63
2022/03/16 10:04:36;;;;;;;30.57;23.53;;;;;;;7.36;100.00;97235.44;5027970;28;104199;-62
2022/03/16 10:07:05;;;;;;;29.40;23.00;;;;;;;7.40;100.00;97228.69;5029899;28;101794;-63
2022/03/16 10:15:10;;;;;;;26.63;21.37;;;;;;;7.05;100.00;97225.59;5048518;27;103958;-63
2022/03/16 10:17:46;;;;;;;27.97;22.80;;;;;;;7.03;100.00;97221.53;5047641;27;105434;-63
2022/03/16 10:20:50;;;;;;;27.73;22.20;;;;;;;6.95;100.00;97219.09;5050072;27;101895;-63
2022/03/16 10:23:21;;;;;;;28.33;22.77;;;;;;;7.04;100.00;97223.94;5049973;27;102316;-63
2022/03/16 10:25:51;;;;;;;27.77;20.10;;;;;;;7.21;100.00;97219.81;5049490;27;102841;-63
2022/03/16 10:28:20;;;;;;;27.67;22.23;;;;;;;7.17;100.00;97223.09;5048151;27;101960;-63
2022/03/16 10:31:31;;;;;;;31.53;23.03;;;;;;;7.27;100.00;97223.47;5049059;27;102800;-63
2022/03/16 10:34:03;;;;;;;28.67;22.83;;;;;;;7.17;100.00;97223.09;5038411;27;103344;-63
2022/03/16 10:36:39;;;;;;;30.20;23.27;;;;;;;7.44;100.00;97219.31;5048291;27;105629;-63
2022/03/16 10:39:06;;;;;;;26.70;22.13;;;;;;;7.39;100.00;97217.31;5047607;27;105049;-62
2022/03/16 10:47:58;;;;;;;29.47;22.73;;;;;;;7.60;100.00;97216.19;5045694;27;104220;-62
2022/03/16 10:50:25;;;;;;;28.00;23.40;;;;;;;7.55;100.00;97216.84;5045084;27;102386;-62
2022/03/16 10:52:54;;;;;;;27.97;22.43;;;;;;;7.50;100.00;97223.78;5035607;27;107348;-62
2022/03/16 10:55:22;;;;;;;26.30;22.53;;;;;;;7.44;100.00;97222.78;5048279;27;102729;-62
2022/03/16 10:57:50;;;;;;;24.67;21.50;;;;;;;7.03;100.00;97217.03;5037888;27;101969;-62
2022/03/16 11:00:22;;;;;;;24.43;20.33;;;;;;;6.97;100.00;97219.69;5046552;27;105084;-62
2022/03/16 11:02:51;;;;;;;26.30;21.83;;;;;;;7.10;100.00;97222.31;5036086;27;101932;-62
2022/03/16 11:05:20;;;;;;;27.13;22.43;;;;;;;7.18;100.00;97222.06;5047533;27;105443;-62
2022/03/16 11:07:49;;;;;;;27.37;22.30;;;;;;;7.20;100.00;97218.19;5045872;27;105270;-62
2022/03/16 11:10:22;;;;;;;24.77;20.87;;;;;;;7.30;100.00;97217.78;5047882;27;101831;-62
2022/03/16 11:13:28;;;;;;;26.03;22.40;;;;;;;7.39;100.00;97221.78;5027562;28;105153;-62
2022/03/16 11:15:57;;;;;;;25.63;21.40;;;;;;;7.26;100.00;97219.22;5028180;28;103192;-62
2022/03/16 11:18:24;;;;;;;26.03;21.07;;;;;;;7.19;100.00;97216.56;5026923;27;102167;-62
2022/03/16 11:21:06;;;;;;;27.30;21.77;;;;;;;7.26;100.00;97208.63;5035655;27;105280;-62
2022/03/16 11:26:34;;;;;;;26.93;22.97;;;;;;;7.46;100.00;97190.81;5039169;27;104386;-62
2022/03/16 11:29:14;;;;;;;27.93;22.23;;;;;;;7.37;100.00;97187.59;5049595;27;105468;-62
2022/03/16 11:31:44;;;;;;;27.50;22.70;;;;;;;7.55;100.00;97186.91;5049138;27;101783;-62
2022/03/16 11:34:13;;;;;;;29.30;23.27;;;;;;;7.45;100.00;97178.59;5051146;27;105340;-62
2022/03/16 11:36:42;;;;;;;27.73;23.07;;;;;;;7.48;100.00;97184.28;5037101;27;105200;-62
2022/03/16 11:39:17;;;;;;;28.17;23.57;;;;;;;7.63;100.00;97189.31;5030800;27;102044;-62